createdAt,value
2023-04-13T00:02:42.041Z,96814.38
2023-04-13T00:05:53.966Z,96804.28
2023-04-13T00:09:10.866Z,96806.97
2023-04-13T00:12:21.551Z,96797.91
2023-04-13T00:15:28.606Z,96799.03
2023-04-13T00:18:35.705Z,96792.75
2023-04-13T00:21:42.430Z,96794.75
2023-04-13T00:24:54.824Z,96798.22
2023-04-13T00:28:03.338Z,96795.88
2023-04-13T00:31:10.590Z,96800.03
2023-04-13T00:34:16.622Z,96801.03
2023-04-13T00:37:24.149Z,96804.19
2023-04-13T00:40:32.676Z,96806.50
2023-04-13T00:43:39.466Z,96805.53
2023-04-13T00:46:46.779Z,96801.94
2023-04-13T00:49:54.394Z,96803.09
2023-04-13T00:53:00.798Z,96804.09
2023-04-13T00:56:12.461Z,96809.69
2023-04-13T00:59:21.294Z,96804.78
2023-04-13T01:02:29.486Z,96809.88
2023-04-13T01:05:52.055Z,96802.81
2023-04-13T01:09:09.928Z,96806.47
2023-04-13T01:12:29.832Z,96810.41
2023-04-13T01:15:46.649Z,96807.78
2023-04-13T01:18:58.382Z,96810.44
2023-04-13T01:22:08.009Z,96800.91
2023-04-13T01:25:34.751Z,96814.38
2023-04-13T01:28:44.743Z,96810.75
2023-04-13T01:31:53.134Z,96813.19
2023-04-13T01:35:00.086Z,96819.47
2023-04-13T01:38:10.298Z,96808.06
2023-04-13T01:41:16.556Z,96812.31
2023-04-13T01:44:29.527Z,96813.28
2023-04-13T01:47:41.723Z,96812.13
2023-04-13T01:51:22.058Z,96808.63
2023-04-13T01:54:36.364Z,96808.41
2023-04-13T01:57:47.656Z,96809.09
2023-04-13T02:00:57.568Z,96813.03
2023-04-13T02:04:05.974Z,96816.50
2023-04-13T02:07:12.653Z,96805.91
2023-04-13T02:10:25.112Z,96809.84
2023-04-13T02:13:31.239Z,96808.75
2023-04-13T02:16:42.184Z,96806.06
2023-04-13T02:19:48.165Z,96800.31
2023-04-13T02:22:55.404Z,96801.06
2023-04-13T02:26:01.427Z,96796.84
2023-04-13T02:29:09.360Z,96801.22
2023-04-13T02:32:19.182Z,96793.66
2023-04-13T02:35:26.276Z,96806.47
2023-04-13T02:38:32.746Z,96792.25
2023-04-13T02:41:45.974Z,96791.28
2023-04-13T02:44:57.241Z,96794.28
2023-04-13T02:48:07.531Z,96779.69
2023-04-13T02:51:13.534Z,96786.72
2023-04-13T02:54:22.708Z,96783.47
2023-04-13T02:57:30.017Z,96783.75
2023-04-13T03:00:38.999Z,96771.78
2023-04-13T03:03:52.630Z,96772.03
2023-04-13T03:07:08.694Z,96780.78
2023-04-13T03:10:19.403Z,96780.47
2023-04-13T03:13:27.959Z,96781.63
2023-04-13T03:16:36.614Z,96788.72
2023-04-13T03:19:49.347Z,96789.69
2023-04-13T03:22:59.012Z,96779.03
2023-04-13T03:26:10.127Z,96788.56
2023-04-13T03:29:18.980Z,96796.66
2023-04-13T03:32:26.229Z,96800.59
2023-04-13T03:35:41.040Z,96799.78
2023-04-13T03:38:55.488Z,96801.44
2023-04-13T03:42:03.870Z,96804.47
2023-04-13T03:45:12.749Z,96792.56
2023-04-13T03:48:19.327Z,96790.78
2023-04-13T03:51:29.575Z,96795.06
2023-04-13T03:54:35.568Z,96791.63
2023-04-13T03:57:42.490Z,96792.78
2023-04-13T04:00:53.937Z,96791.00
2023-04-13T04:04:11.236Z,96795.13
2023-04-13T04:07:23.484Z,96796.59
2023-04-13T04:10:31.733Z,96798.25
2023-04-13T04:13:38.631Z,96798.53
2023-04-13T04:16:50.194Z,96795.94
2023-04-13T04:19:58.420Z,96793.94
2023-04-13T04:23:10.190Z,96791.25
2023-04-13T04:26:26.139Z,96791.97
2023-04-13T04:29:40.933Z,96794.63
2023-04-13T04:33:02.074Z,96797.53
2023-04-13T04:36:16.638Z,96800.25
2023-04-13T04:39:44.837Z,96808.06
2023-04-13T04:42:55.833Z,96796.06
2023-04-13T04:46:16.511Z,96798.31
2023-04-13T04:49:31.000Z,96804.13
2023-04-13T04:52:37.948Z,96806.31
2023-04-13T04:55:48.997Z,96800.66
2023-04-13T04:59:13.400Z,96805.44
2023-04-13T05:02:35.731Z,96802.53
2023-04-13T05:05:42.815Z,96806.00
2023-04-13T05:08:57.157Z,96810.63
2023-04-13T05:12:07.894Z,96806.63
2023-04-13T05:15:17.523Z,96812.56
2023-04-13T05:18:25.867Z,96823.34
2023-04-13T05:21:35.356Z,96825.47
2023-04-13T05:24:41.680Z,96820.38
2023-04-13T05:27:54.562Z,96821.16
2023-04-13T05:31:04.634Z,96829.19
2023-04-13T05:34:14.576Z,96827.47
2023-04-13T05:37:28.883Z,96821.28
2023-04-13T05:40:36.197Z,96826.69
2023-04-13T05:43:46.507Z,96820.75
2023-04-13T05:46:54.479Z,96822.03
2023-04-13T05:50:00.872Z,96827.19
2023-04-13T05:53:09.114Z,96828.91
2023-04-13T05:56:27.088Z,96836.66
2023-04-13T05:59:37.850Z,96838.50
2023-04-13T06:02:44.394Z,96830.75
2023-04-13T06:05:53.557Z,96828.31
2023-04-13T06:08:59.876Z,96826.06
2023-04-13T06:12:08.244Z,96830.38
2023-04-13T06:15:18.678Z,96835.56
2023-04-13T06:18:25.354Z,96836.16
2023-04-13T06:21:32.524Z,96832.53
2023-04-13T06:24:39.157Z,96834.13
2023-04-13T06:27:50.212Z,96840.03
2023-04-13T06:31:01.653Z,96834.19
2023-04-13T06:34:08.654Z,96839.28
2023-04-13T06:37:18.146Z,96838.50
2023-04-13T06:40:27.953Z,96844.19
2023-04-13T06:43:42.349Z,96849.44
2023-04-13T06:47:14.005Z,96852.56
2023-04-13T06:50:23.725Z,96852.69
2023-04-13T06:53:30.301Z,96846.63
2023-04-13T06:56:37.156Z,96839.16
2023-04-13T06:59:43.714Z,96843.75
2023-04-13T07:02:53.233Z,96852.78
2023-04-13T07:06:00.472Z,96845.22
2023-04-13T07:09:07.492Z,96843.84
2023-04-13T07:12:14.476Z,96844.69
2023-04-13T07:15:22.680Z,96844.75
2023-04-13T07:18:31.926Z,96839.66
2023-04-13T07:21:38.899Z,96845.75
2023-04-13T07:24:44.877Z,96836.72
2023-04-13T07:27:56.341Z,96848.41
2023-04-13T07:31:03.808Z,96840.91
2023-04-13T07:34:13.685Z,96844.34
2023-04-13T07:37:24.528Z,96843.94
2023-04-13T07:40:31.666Z,96844.34
2023-04-13T07:43:43.366Z,96846.75
2023-04-13T07:46:50.839Z,96847.72
2023-04-13T07:50:01.869Z,96844.69
2023-04-13T07:53:09.179Z,96839.47
2023-04-13T07:56:16.336Z,96837.25
2023-04-13T07:59:25.072Z,96841.66
2023-04-13T08:02:32.421Z,96840.59
2023-04-13T08:05:43.017Z,96844.31
2023-04-13T08:08:50.333Z,96846.50
2023-04-13T08:11:57.682Z,96845.81
2023-04-13T08:15:03.602Z,96849.91
2023-04-13T08:18:10.870Z,96833.84
2023-04-13T08:21:20.090Z,96847.50
2023-04-13T08:24:29.518Z,96847.38
2023-04-13T08:27:36.359Z,96850.66
2023-04-13T08:30:46.142Z,96840.19
2023-04-13T08:33:52.743Z,96846.72
2023-04-13T08:37:02.260Z,96851.91
2023-04-13T08:40:14.471Z,96850.91
2023-04-13T08:43:23.705Z,96858.94
2023-04-13T08:46:30.173Z,96855.78
2023-04-13T08:49:42.777Z,96862.28
2023-04-13T08:52:59.234Z,96856.31
2023-04-13T08:56:15.162Z,96865.41
2023-04-13T08:59:24.174Z,96872.59
2023-04-13T09:02:44.267Z,96867.41
2023-04-13T09:06:11.679Z,96877.38
2023-04-13T09:09:23.580Z,96867.06
2023-04-13T09:12:34.203Z,96869.63
2023-04-13T09:15:41.436Z,96861.09
2023-04-13T09:19:06.193Z,96862.34
2023-04-13T09:22:16.979Z,96864.31
2023-04-13T09:25:28.716Z,96859.31
2023-04-13T09:28:35.647Z,96863.31
2023-04-13T09:31:45.235Z,96849.66
2023-04-13T09:35:05.169Z,96859.00
2023-04-13T09:38:15.655Z,96855.84
2023-04-13T09:41:36.996Z,96853.94
2023-04-13T09:44:43.233Z,96856.13
2023-04-13T09:48:06.294Z,96854.44
2023-04-13T09:51:13.298Z,96854.50
2023-04-13T09:54:30.065Z,96861.50
2023-04-13T09:57:49.517Z,96853.97
2023-04-13T10:00:58.403Z,96853.13
2023-04-13T10:04:04.668Z,96839.53
2023-04-13T10:07:12.551Z,96857.09
2023-04-13T10:10:19.856Z,96851.69
2023-04-13T10:13:45.185Z,96845.84
2023-04-13T10:17:28.643Z,96847.22
2023-04-13T10:20:38.020Z,96835.19
2023-04-13T10:23:45.933Z,96841.44
2023-04-13T10:27:00.582Z,96843.81
2023-04-13T10:30:22.053Z,96834.69
2023-04-13T10:33:31.926Z,96832.94
2023-04-13T10:36:47.303Z,96826.22
2023-04-13T10:40:10.332Z,96823.13
2023-04-13T10:43:27.451Z,96838.66
2023-04-13T10:46:37.896Z,96827.22
2023-04-13T10:49:46.453Z,96828.06
2023-04-13T10:53:05.242Z,96825.50
2023-04-13T10:56:19.591Z,96829.03
2023-04-13T10:59:26.625Z,96823.16
2023-04-13T11:02:36.529Z,96825.84
2023-04-13T11:05:43.858Z,96819.84
2023-04-13T11:08:50.034Z,96828.50
2023-04-13T11:11:58.670Z,96826.59
2023-04-13T11:15:04.605Z,96829.19
2023-04-13T11:18:14.239Z,96833.81
2023-04-13T11:21:21.426Z,96831.03
2023-04-13T11:24:34.782Z,96830.03
2023-04-13T11:27:41.354Z,96823.78
2023-04-13T11:31:01.885Z,96827.31
2023-04-13T11:34:13.501Z,96825.56
2023-04-13T11:37:20.938Z,96825.03
2023-04-13T11:40:29.429Z,96830.38
2023-04-13T11:43:37.418Z,96824.63
2023-04-13T11:46:43.717Z,96829.00
2023-04-13T11:49:54.427Z,96831.44
2023-04-13T11:53:04.066Z,96830.00
2023-04-13T11:56:11.783Z,96820.88
2023-04-13T11:59:18.121Z,96822.84
2023-04-13T12:02:30.078Z,96829.50
2023-04-13T12:05:42.554Z,96827.56
2023-04-13T12:08:56.143Z,96830.75
2023-04-13T12:12:46.484Z,96834.56
2023-04-13T12:16:05.432Z,96837.47
2023-04-13T12:19:15.315Z,96842.34
2023-04-13T12:22:38.808Z,96849.97
2023-04-13T12:26:25.524Z,96848.81
2023-04-13T12:29:29.900Z,96850.25
2023-04-13T12:32:37.200Z,96841.66
2023-04-13T12:35:44.051Z,96851.03
2023-04-13T12:38:52.564Z,96849.63
2023-04-13T12:41:59.852Z,96854.09
2023-04-13T12:45:08.295Z,96852.59
2023-04-13T12:48:15.363Z,96861.75
2023-04-13T12:51:21.517Z,96864.81
2023-04-13T12:54:31.316Z,96865.38
2023-04-13T12:57:37.274Z,96863.63
2023-04-13T13:00:44.263Z,96865.97
2023-04-13T13:03:50.394Z,96860.28
2023-04-13T13:07:05.717Z,96866.09
2023-04-13T13:10:29.084Z,96862.84
2023-04-13T13:13:36.969Z,96860.84
2023-04-13T13:16:43.268Z,96863.09
2023-04-13T13:19:50.166Z,96869.22
2023-04-13T13:22:56.140Z,96868.16
2023-04-13T13:26:23.267Z,96872.50
2023-04-13T13:29:33.649Z,96866.44
2023-04-13T13:32:40.610Z,96865.88
2023-04-13T13:35:50.300Z,96871.88
2023-04-13T13:38:57.431Z,96886.53
2023-04-13T13:42:06.405Z,96872.94
2023-04-13T13:45:14.260Z,96886.72
2023-04-13T13:48:21.991Z,96890.16
2023-04-13T13:51:38.501Z,96894.25
2023-04-13T13:54:53.535Z,96902.84
2023-04-13T13:58:03.689Z,96904.72
2023-04-13T14:01:10.540Z,96899.00
2023-04-13T14:04:17.588Z,96907.53
2023-04-13T14:07:24.636Z,96911.03
2023-04-13T14:10:31.480Z,96910.50
2023-04-13T14:13:40.101Z,96928.56
2023-04-13T14:16:46.873Z,96930.91
2023-04-13T14:19:52.949Z,96932.72
2023-04-13T14:23:01.290Z,96940.44
2023-04-13T14:26:07.661Z,96941.78
2023-04-13T14:29:21.666Z,96943.31
2023-04-13T14:32:29.756Z,96946.03
2023-04-13T14:35:40.058Z,96938.38
2023-04-13T14:38:46.004Z,96940.66
2023-04-13T14:41:53.792Z,96946.22
2023-04-13T14:45:11.350Z,96950.53
2023-04-13T14:48:28.752Z,96947.25
2023-04-13T14:51:34.974Z,96952.00
2023-04-13T14:54:42.330Z,96948.50
2023-04-13T14:57:48.473Z,96951.44
2023-04-13T15:00:57.994Z,96947.56
2023-04-13T15:04:04.635Z,96946.75
2023-04-13T15:07:18.401Z,96954.16
2023-04-13T15:10:33.650Z,96952.72
2023-04-13T15:13:42.937Z,96949.44
2023-04-13T15:16:51.820Z,96962.75
2023-04-13T15:20:19.356Z,96966.66
2023-04-13T15:23:41.612Z,96968.47
2023-04-13T15:26:52.661Z,96965.59
2023-04-13T15:30:10.391Z,96964.78
2023-04-13T15:33:40.305Z,96966.66
2023-04-13T15:36:46.373Z,96972.38
2023-04-13T15:39:53.516Z,96973.41
2023-04-13T15:42:59.706Z,96973.41
2023-04-13T15:46:06.779Z,96982.41
2023-04-13T15:49:15.522Z,96983.63
2023-04-13T15:52:29.243Z,96989.53
2023-04-13T15:55:36.045Z,96990.16
2023-04-13T15:58:43.093Z,96995.66
2023-04-13T16:01:55.280Z,97004.78
2023-04-13T16:05:06.070Z,96995.81
2023-04-13T16:08:12.536Z,97007.69
2023-04-13T16:11:28.040Z,97007.03
2023-04-13T16:14:42.446Z,97014.31
2023-04-13T16:17:49.435Z,97016.16
2023-04-13T16:21:09.362Z,97028.56
2023-04-13T16:24:21.476Z,97025.84
2023-04-13T16:27:30.731Z,97019.50
2023-04-13T16:30:37.807Z,97024.00
2023-04-13T16:33:43.898Z,97030.09
2023-04-13T16:36:53.526Z,97028.19
2023-04-13T16:39:59.517Z,97030.28
2023-04-13T16:43:14.987Z,97036.00
2023-04-13T16:46:22.194Z,97039.00
2023-04-13T16:49:32.916Z,97041.63
2023-04-13T16:52:42.029Z,97047.31
2023-04-13T16:55:59.665Z,97044.53
2023-04-13T16:59:05.675Z,97043.88
2023-04-13T17:02:24.637Z,97046.94
2023-04-13T17:05:34.295Z,97046.94
2023-04-13T17:08:43.773Z,97048.38
2023-04-13T17:11:49.734Z,97050.41
2023-04-13T17:14:57.875Z,97051.69
2023-04-13T17:18:04.641Z,97062.06
2023-04-13T17:21:11.835Z,97066.16
2023-04-13T17:24:20.518Z,97065.69
2023-04-13T17:27:27.446Z,97070.97
2023-04-13T17:30:33.718Z,97069.06
2023-04-13T17:33:45.387Z,97073.13
2023-04-13T17:36:52.003Z,97073.00
2023-04-13T17:40:02.551Z,97085.47
2023-04-13T17:43:09.528Z,97086.13
2023-04-13T17:46:16.582Z,97084.88
2023-04-13T17:49:26.487Z,97087.28
2023-04-13T17:52:33.271Z,97085.78
2023-04-13T17:55:42.307Z,97092.84
2023-04-13T17:58:49.161Z,97086.94
2023-04-13T18:01:57.160Z,97103.47
2023-04-13T18:05:04.122Z,97108.28
2023-04-13T18:08:10.015Z,97098.53
2023-04-13T18:11:19.591Z,97106.00
2023-04-13T18:14:25.677Z,97101.53
2023-04-13T18:17:32.516Z,97113.38
2023-04-13T18:20:38.633Z,97110.72
2023-04-13T18:23:46.528Z,97117.06
2023-04-13T18:26:55.642Z,97110.09
2023-04-13T18:30:02.633Z,97113.25
2023-04-13T18:33:08.729Z,97118.13
2023-04-13T18:36:18.752Z,97117.88
2023-04-13T18:39:24.890Z,97120.56
2023-04-13T18:42:34.506Z,97119.03
2023-04-13T18:45:40.842Z,97120.53
2023-04-13T18:48:47.985Z,97117.88
2023-04-13T18:51:54.161Z,97117.00
2023-04-13T18:55:01.183Z,97117.44
2023-04-13T18:58:09.935Z,97118.28
2023-04-13T19:01:20.256Z,97120.59
2023-04-13T19:04:29.037Z,97126.41
2023-04-13T19:07:36.264Z,97121.53
2023-04-13T19:10:42.278Z,97123.56
2023-04-13T19:13:51.752Z,97129.75
2023-04-13T19:16:57.786Z,97120.53
2023-04-13T19:20:06.631Z,97116.56
2023-04-13T19:23:12.709Z,97115.66
2023-04-13T19:26:19.659Z,97124.91
2023-04-13T19:29:30.546Z,97116.88
2023-04-13T19:32:37.355Z,97118.53
2023-04-13T19:35:43.450Z,97117.88
2023-04-13T19:38:52.109Z,97117.34
2023-04-13T19:41:58.625Z,97121.63
2023-04-13T19:45:09.095Z,97128.50
2023-04-13T19:48:23.158Z,97122.44
2023-04-13T19:51:30.268Z,97129.81
2023-04-13T19:54:36.442Z,97128.38
2023-04-13T19:57:44.087Z,97131.03
2023-04-13T20:00:52.678Z,97126.16
2023-04-13T20:03:59.966Z,97121.53
2023-04-13T20:07:06.791Z,97121.63
2023-04-13T20:10:15.592Z,97120.59
2023-04-13T20:13:21.449Z,97125.09
2023-04-13T20:16:30.825Z,97114.84
2023-04-13T20:19:36.989Z,97128.94
2023-04-13T20:22:43.850Z,97127.72
2023-04-13T20:25:49.748Z,97118.00
2023-04-13T20:28:57.179Z,97126.88
2023-04-13T20:32:05.806Z,97124.47
2023-04-13T20:35:13.395Z,97119.75
2023-04-13T20:38:19.497Z,97123.88
2023-04-13T20:41:26.598Z,97118.94
2023-04-13T20:44:38.168Z,97120.16
2023-04-13T20:47:53.325Z,97117.19
2023-04-13T20:50:59.314Z,97121.06
2023-04-13T20:54:10.394Z,97118.66
2023-04-13T20:57:17.276Z,97121.91
2023-04-13T21:00:34.461Z,97121.34
2023-04-13T21:03:43.241Z,97118.13
2023-04-13T21:06:50.474Z,97119.75
2023-04-13T21:09:57.221Z,97115.72
2023-04-13T21:13:05.086Z,97113.13
2023-04-13T21:16:12.420Z,97103.53
2023-04-13T21:19:21.871Z,97109.00
2023-04-13T21:22:27.919Z,97101.84
2023-04-13T21:25:34.650Z,97102.25
2023-04-13T21:28:46.480Z,97099.31
2023-04-13T21:31:53.369Z,97094.06
2023-04-13T21:35:08.484Z,97091.22
2023-04-13T21:38:19.036Z,97086.41
2023-04-13T21:41:25.913Z,97085.13
2023-04-13T21:44:32.973Z,97084.31
2023-04-13T21:47:40.029Z,97084.16
2023-04-13T21:50:53.622Z,97088.59
2023-04-13T21:54:00.130Z,97089.03
2023-04-13T21:57:07.711Z,97086.44
2023-04-13T22:00:16.593Z,97096.41
2023-04-13T22:03:23.476Z,97087.06
2023-04-13T22:06:32.980Z,97084.38
2023-04-13T22:09:47.427Z,97091.41
2023-04-13T22:12:53.477Z,97085.31
2023-04-13T22:16:00.417Z,97085.16
2023-04-13T22:19:09.881Z,97080.25
2023-04-13T22:22:19.442Z,97087.38
2023-04-13T22:25:28.240Z,97083.31
2023-04-13T22:28:35.535Z,97076.31
2023-04-13T22:31:41.474Z,97072.66
2023-04-13T22:34:48.261Z,97073.72
2023-04-13T22:37:56.950Z,97065.28
2023-04-13T22:41:11.756Z,97066.06
2023-04-13T22:44:22.334Z,97060.28
2023-04-13T22:47:29.106Z,97064.00
2023-04-13T22:50:35.108Z,97065.13
2023-04-13T22:53:45.527Z,97057.50
2023-04-13T22:56:51.629Z,97055.03
2023-04-13T23:00:08.496Z,97055.44
2023-04-13T23:03:16.539Z,97047.50
2023-04-13T23:06:23.670Z,97049.09
2023-04-13T23:09:33.989Z,97045.81
2023-04-13T23:12:41.038Z,97045.41
2023-04-13T23:15:46.859Z,97053.06
2023-04-13T23:18:53.676Z,97048.78
2023-04-13T23:21:59.532Z,97044.13
2023-04-13T23:25:12.629Z,97043.47
2023-04-13T23:28:18.522Z,97042.59
2023-04-13T23:31:25.387Z,97044.28
2023-04-13T23:34:43.399Z,97042.84
2023-04-13T23:37:50.194Z,97028.97
2023-04-13T23:41:00.137Z,97030.19
2023-04-13T23:44:07.028Z,97026.06
2023-04-13T23:47:13.037Z,97014.34
2023-04-13T23:50:20.350Z,97015.16
2023-04-13T23:53:26.268Z,97021.50
2023-04-13T23:56:35.866Z,97009.69
2023-04-13T23:59:42.013Z,97002.31
